sensor_id;sensor_type;location;lat;lon;timestamp;temperature;humidity
16064;DHT22;8136;53.172;8.256;2023-04-01T00:01:56;11.20;99.90
16064;DHT22;8136;53.172;8.256;2023-04-01T00:04:22;11.20;99.90
16064;DHT22;8136;53.172;8.256;2023-04-01T00:06:49;11.20;99.90
16064;DHT22;8136;53.172;8.256;2023-04-01T00:09:17;11.20;99.90
16064;DHT22;8136;53.172;8.256;2023-04-01T00:11:44;11.20;99.90
16064;DHT22;8136;53.172;8.256;2023-04-01T00:14:12;11.20;99.90
16064;DHT22;8136;53.172;8.256;2023-04-01T00:16:39;11.20;99.90
16064;DHT22;8136;53.172;8.256;2023-04-01T00:19:06;11.20;99.90
16064;DHT22;8136;53.172;8.256;2023-04-01T00:21:33;11.20;99.90
16064;DHT22;8136;53.172;8.256;2023-04-01T00:24:00;11.20;99.90
16064;DHT22;8136;53.172;8.256;2023-04-01T00:26:27;11.20;99.90
16064;DHT22;8136;53.172;8.256;2023-04-01T00:28:54;11.20;99.90
16064;DHT22;8136;53.172;8.256;2023-04-01T00:31:22;11.10;99.90
16064;DHT22;8136;53.172;8.256;2023-04-01T00:33:49;11.20;99.90
16064;DHT22;8136;53.172;8.256;2023-04-01T00:36:17;11.20;99.90
16064;DHT22;8136;53.172;8.256;2023-04-01T00:38:45;11.10;99.90
16064;DHT22;8136;53.172;8.256;2023-04-01T00:41:13;11.10;99.90
16064;DHT22;8136;53.172;8.256;2023-04-01T00:43:41;11.20;99.90
16064;DHT22;8136;53.172;8.256;2023-04-01T00:46:08;11.10;99.90
16064;DHT22;8136;53.172;8.256;2023-04-01T00:48:38;11.20;99.90
16064;DHT22;8136;53.172;8.256;2023-04-01T00:51:08;11.20;99.90
16064;DHT22;8136;53.172;8.256;2023-04-01T00:53:39;11.20;99.90
16064;DHT22;8136;53.172;8.256;2023-04-01T00:56:11;11.20;99.90
16064;DHT22;8136;53.172;8.256;2023-04-01T00:58:42;11.20;99.90
16064;DHT22;8136;53.172;8.256;2023-04-01T01:01:10;11.20;99.90
16064;DHT22;8136;53.172;8.256;2023-04-01T01:03:38;11.20;99.90
16064;DHT22;8136;53.172;8.256;2023-04-01T01:06:14;11.20;99.90
16064;DHT22;8136;53.172;8.256;2023-04-01T01:09:06;11.20;99.90
16064;DHT22;8136;53.172;8.256;2023-04-01T01:11:37;11.20;99.90
16064;DHT22;8136;53.172;8.256;2023-04-01T01:14:14;11.20;99.90
16064;DHT22;8136;53.172;8.256;2023-04-01T01:16:48;11.20;99.90
16064;DHT22;8136;53.172;8.256;2023-04-01T01:22:51;11.20;99.90
16064;DHT22;8136;53.172;8.256;2023-04-01T01:25:29;11.20;99.90
16064;DHT22;8136;53.172;8.256;2023-04-01T01:28:07;11.10;99.90
16064;DHT22;8136;53.172;8.256;2023-04-01T01:30:46;11.10;99.90
16064;DHT22;8136;53.172;8.256;2023-04-01T01:33:34;11.20;99.90
16064;DHT22;8136;53.172;8.256;2023-04-01T01:36:05;11.10;99.90
16064;DHT22;8136;53.172;8.256;2023-04-01T01:38:35;11.10;99.90
16064;DHT22;8136;53.172;8.256;2023-04-01T01:41:04;11.10;99.90
16064;DHT22;8136;53.172;8.256;2023-04-01T01:43:34;11.10;99.90
16064;DHT22;8136;53.172;8.256;2023-04-01T01:46:05;11.10;99.90
16064;DHT22;8136;53.172;8.256;2023-04-01T01:48:35;11.10;99.90
16064;DHT22;8136;53.172;8.256;2023-04-01T01:51:05;11.10;99.90
16064;DHT22;8136;53.172;8.256;2023-04-01T01:53:32;11.10;99.90
16064;DHT22;8136;53.172;8.256;2023-04-01T01:55:59;11.10;99.90
16064;DHT22;8136;53.172;8.256;2023-04-01T01:58:30;11.10;99.90
16064;DHT22;8136;53.172;8.256;2023-04-01T02:01:02;11.00;99.90
16064;DHT22;8136;53.172;8.256;2023-04-01T02:03:33;11.10;99.90
16064;DHT22;8136;53.172;8.256;2023-04-01T02:06:04;11.00;99.90
16064;DHT22;8136;53.172;8.256;2023-04-01T02:08:35;11.10;99.90
16064;DHT22;8136;53.172;8.256;2023-04-01T02:11:07;11.10;99.90
16064;DHT22;8136;53.172;8.256;2023-04-01T02:13:36;11.10;99.90
16064;DHT22;8136;53.172;8.256;2023-04-01T02:16:08;11.10;99.90
16064;DHT22;8136;53.172;8.256;2023-04-01T02:18:39;11.10;99.90
16064;DHT22;8136;53.172;8.256;2023-04-01T02:21:08;11.10;99.90
16064;DHT22;8136;53.172;8.256;2023-04-01T02:23:36;11.10;99.90
16064;DHT22;8136;53.172;8.256;2023-04-01T02:26:05;11.00;99.90
16064;DHT22;8136;53.172;8.256;2023-04-01T02:28:34;11.00;99.90
16064;DHT22;8136;53.172;8.256;2023-04-01T02:31:03;11.00;99.90
16064;DHT22;8136;53.172;8.256;2023-04-01T02:33:30;11.00;99.90
16064;DHT22;8136;53.172;8.256;2023-04-01T02:35:58;11.00;99.90
16064;DHT22;8136;53.172;8.256;2023-04-01T02:38:26;11.00;99.90
16064;DHT22;8136;53.172;8.256;2023-04-01T02:40:57;11.00;99.90
16064;DHT22;8136;53.172;8.256;2023-04-01T02:43:24;11.00;99.90
16064;DHT22;8136;53.172;8.256;2023-04-01T02:45:51;11.00;99.90
16064;DHT22;8136;53.172;8.256;2023-04-01T02:48:18;11.00;99.90
16064;DHT22;8136;53.172;8.256;2023-04-01T02:50:46;11.00;99.90
16064;DHT22;8136;53.172;8.256;2023-04-01T02:53:12;11.00;99.90
16064;DHT22;8136;53.172;8.256;2023-04-01T02:55:41;11.00;99.90
16064;DHT22;8136;53.172;8.256;2023-04-01T02:58:08;11.00;99.90
16064;DHT22;8136;53.172;8.256;2023-04-01T03:00:35;11.00;99.90
16064;DHT22;8136;53.172;8.256;2023-04-01T03:03:02;11.00;99.90
16064;DHT22;8136;53.172;8.256;2023-04-01T03:05:29;11.00;99.90
16064;DHT22;8136;53.172;8.256;2023-04-01T03:07:56;11.00;99.90
16064;DHT22;8136;53.172;8.256;2023-04-01T03:10:23;11.00;99.90
16064;DHT22;8136;53.172;8.256;2023-04-01T03:12:51;11.00;99.90
16064;DHT22;8136;53.172;8.256;2023-04-01T03:15:18;11.00;99.90
16064;DHT22;8136;53.172;8.256;2023-04-01T03:17:45;10.90;99.90
16064;DHT22;8136;53.172;8.256;2023-04-01T03:20:13;11.00;99.90
16064;DHT22;8136;53.172;8.256;2023-04-01T03:22:40;11.00;99.90
16064;DHT22;8136;53.172;8.256;2023-04-01T03:25:08;10.90;99.90
16064;DHT22;8136;53.172;8.256;2023-04-01T03:27:36;10.90;99.90
16064;DHT22;8136;53.172;8.256;2023-04-01T03:30:06;10.90;99.90
16064;DHT22;8136;53.172;8.256;2023-04-01T03:32:33;10.90;99.90
16064;DHT22;8136;53.172;8.256;2023-04-01T03:35:00;10.90;99.90
16064;DHT22;8136;53.172;8.256;2023-04-01T03:37:27;10.90;99.90
16064;DHT22;8136;53.172;8.256;2023-04-01T03:39:53;10.90;99.90
16064;DHT22;8136;53.172;8.256;2023-04-01T03:42:20;10.90;99.90
16064;DHT22;8136;53.172;8.256;2023-04-01T03:44:47;10.90;99.90
16064;DHT22;8136;53.172;8.256;2023-04-01T03:47:15;10.90;99.90
16064;DHT22;8136;53.172;8.256;2023-04-01T03:49:42;10.90;99.90
16064;DHT22;8136;53.172;8.256;2023-04-01T03:52:10;10.90;99.90
16064;DHT22;8136;53.172;8.256;2023-04-01T03:54:37;10.90;99.90
16064;DHT22;8136;53.172;8.256;2023-04-01T03:57:04;10.90;99.90
16064;DHT22;8136;53.172;8.256;2023-04-01T03:59:31;10.90;99.90
16064;DHT22;8136;53.172;8.256;2023-04-01T04:01:57;10.90;99.90
16064;DHT22;8136;53.172;8.256;2023-04-01T04:04:26;10.90;99.90
16064;DHT22;8136;53.172;8.256;2023-04-01T04:06:53;10.90;99.90
16064;DHT22;8136;53.172;8.256;2023-04-01T04:09:20;10.90;99.90
16064;DHT22;8136;53.172;8.256;2023-04-01T04:11:47;10.90;99.90
16064;DHT22;8136;53.172;8.256;2023-04-01T04:14:14;10.90;99.90
16064;DHT22;8136;53.172;8.256;2023-04-01T04:16:41;10.80;99.90
16064;DHT22;8136;53.172;8.256;2023-04-01T04:19:07;10.90;99.90
16064;DHT22;8136;53.172;8.256;2023-04-01T04:21:36;10.90;99.90
16064;DHT22;8136;53.172;8.256;2023-04-01T04:24:03;10.80;99.90
16064;DHT22;8136;53.172;8.256;2023-04-01T04:26:30;10.80;99.90
16064;DHT22;8136;53.172;8.256;2023-04-01T04:28:56;10.90;99.90
16064;DHT22;8136;53.172;8.256;2023-04-01T04:31:24;10.80;99.90
16064;DHT22;8136;53.172;8.256;2023-04-01T04:33:52;10.90;99.90
16064;DHT22;8136;53.172;8.256;2023-04-01T04:36:19;10.90;99.90
16064;DHT22;8136;53.172;8.256;2023-04-01T04:38:48;10.90;99.90
16064;DHT22;8136;53.172;8.256;2023-04-01T04:41:16;10.80;99.90
16064;DHT22;8136;53.172;8.256;2023-04-01T04:43:49;10.80;99.90
16064;DHT22;8136;53.172;8.256;2023-04-01T04:46:19;10.80;99.90
16064;DHT22;8136;53.172;8.256;2023-04-01T04:48:46;10.80;99.90
16064;DHT22;8136;53.172;8.256;2023-04-01T04:51:22;10.80;99.90
16064;DHT22;8136;53.172;8.256;2023-04-01T04:53:52;10.80;99.90
16064;DHT22;8136;53.172;8.256;2023-04-01T04:56:48;10.80;99.90
16064;DHT22;8136;53.172;8.256;2023-04-01T04:59:49;10.80;99.90
16064;DHT22;8136;53.172;8.256;2023-04-01T05:05:26;10.80;99.90
16064;DHT22;8136;53.172;8.256;2023-04-01T05:08:19;10.80;99.90
16064;DHT22;8136;53.172;8.256;2023-04-01T05:11:28;10.70;99.90
16064;DHT22;8136;53.172;8.256;2023-04-01T05:14:25;10.80;99.90
16064;DHT22;8136;53.172;8.256;2023-04-01T05:20:17;10.70;99.90
16064;DHT22;8136;53.172;8.256;2023-04-01T05:22:58;10.80;99.90
16064;DHT22;8136;53.172;8.256;2023-04-01T05:25:43;10.80;99.90
16064;DHT22;8136;53.172;8.256;2023-04-01T05:38:38;10.80;99.90
16064;DHT22;8136;53.172;8.256;2023-04-01T05:41:23;10.80;99.90
16064;DHT22;8136;53.172;8.256;2023-04-01T05:47:53;10.70;99.90
16064;DHT22;8136;53.172;8.256;2023-04-01T05:50:20;10.70;99.90
16064;DHT22;8136;53.172;8.256;2023-04-01T05:56:19;10.80;99.90
16064;DHT22;8136;53.172;8.256;2023-04-01T07:26:25;11.20;99.90
16064;DHT22;8136;53.172;8.256;2023-04-01T11:32:05;11.20;99.90
16064;DHT22;8136;53.172;8.256;2023-04-01T11:35:07;11.20;99.90
16064;DHT22;8136;53.172;8.256;2023-04-01T11:41:30;11.00;99.90
16064;DHT22;8136;53.172;8.256;2023-04-01T11:50:35;10.90;99.90
16064;DHT22;8136;53.172;8.256;2023-04-01T11:53:15;10.90;99.90
16064;DHT22;8136;53.172;8.256;2023-04-01T11:56:07;10.80;99.90
16064;DHT22;8136;53.172;8.256;2023-04-01T11:59:13;10.80;99.90
16064;DHT22;8136;53.172;8.256;2023-04-01T12:01:59;10.80;99.90
16064;DHT22;8136;53.172;8.256;2023-04-01T12:05:14;10.70;99.90
16064;DHT22;8136;53.172;8.256;2023-04-01T13:25:37;10.20;99.90
16064;DHT22;8136;53.172;8.256;2023-04-01T13:28:14;10.20;99.90
16064;DHT22;8136;53.172;8.256;2023-04-01T13:30:49;10.20;99.90
16064;DHT22;8136;53.172;8.256;2023-04-01T13:33:29;10.10;99.90
16064;DHT22;8136;53.172;8.256;2023-04-01T13:36:11;10.10;99.90
16064;DHT22;8136;53.172;8.256;2023-04-01T13:38:53;10.20;99.90
16064;DHT22;8136;53.172;8.256;2023-04-01T13:41:38;10.20;99.90
16064;DHT22;8136;53.172;8.256;2023-04-01T13:44:12;10.10;99.90
16064;DHT22;8136;53.172;8.256;2023-04-01T13:47:19;10.10;99.90
16064;DHT22;8136;53.172;8.256;2023-04-01T13:50:22;10.20;99.90
16064;DHT22;8136;53.172;8.256;2023-04-01T13:53:14;10.20;99.90
16064;DHT22;8136;53.172;8.256;2023-04-01T13:55:53;10.20;99.90
16064;DHT22;8136;53.172;8.256;2023-04-01T13:58:34;10.10;99.90
16064;DHT22;8136;53.172;8.256;2023-04-01T14:01:08;10.10;99.90
16064;DHT22;8136;53.172;8.256;2023-04-01T14:07:43;10.20;99.90
16064;DHT22;8136;53.172;8.256;2023-04-01T14:22:09;10.00;99.90
16064;DHT22;8136;53.172;8.256;2023-04-01T14:32:16;10.10;99.90
16064;DHT22;8136;53.172;8.256;2023-04-01T15:23:37;9.30;99.90
16064;DHT22;8136;53.172;8.256;2023-04-01T15:33:13;9.30;99.90
16064;DHT22;8136;53.172;8.256;2023-04-01T15:39:36;9.10;99.90
16064;DHT22;8136;53.172;8.256;2023-04-01T15:46:18;9.00;99.90
16064;DHT22;8136;53.172;8.256;2023-04-01T15:49:35;8.90;99.90
16064;DHT22;8136;53.172;8.256;2023-04-01T15:52:46;8.80;99.90
16064;DHT22;8136;53.172;8.256;2023-04-01T16:02:30;8.70;99.90
16064;DHT22;8136;53.172;8.256;2023-04-01T16:05:33;8.70;99.90
16064;DHT22;8136;53.172;8.256;2023-04-01T16:09:06;8.60;99.90
16064;DHT22;8136;53.172;8.256;2023-04-01T21:39:11;6.60;99.90
16064;DHT22;8136;53.172;8.256;2023-04-01T21:42:28;6.60;99.90
16064;DHT22;8136;53.172;8.256;2023-04-01T21:45:46;6.60;99.90
16064;DHT22;8136;53.172;8.256;2023-04-01T21:48:53;6.60;99.90
16064;DHT22;8136;53.172;8.256;2023-04-01T22:05:28;6.30;99.90
16064;DHT22;8136;53.172;8.256;2023-04-01T22:08:04;6.20;99.90
16064;DHT22;8136;53.172;8.256;2023-04-01T22:10:40;6.10;99.90
16064;DHT22;8136;53.172;8.256;2023-04-01T22:13:16;6.10;99.90
16064;DHT22;8136;53.172;8.256;2023-04-01T22:15:54;6.10;99.90
16064;DHT22;8136;53.172;8.256;2023-04-01T23:51:36;4.40;99.90
16064;DHT22;8136;53.172;8.256;2023-04-01T23:54:13;4.40;99.90
16064;DHT22;8136;53.172;8.256;2023-04-01T23:56:45;4.40;99.90
16064;DHT22;8136;53.172;8.256;2023-04-01T23:59:16;4.40;99.90
